createdAt,value
2019-03-09T00:00:39.592Z,1.27
2019-03-09T00:03:13.715Z,1.30
2019-03-09T00:05:44.836Z,1.41
2019-03-09T00:08:15.263Z,1.38
2019-03-09T00:10:45.801Z,1.34
2019-03-09T00:13:17.805Z,1.40
2019-03-09T00:15:48.186Z,1.51
2019-03-09T00:18:18.625Z,1.47
2019-03-09T00:20:49.988Z,1.40
2019-03-09T00:23:35.000Z,1.38
2019-03-09T00:26:07.305Z,1.47
2019-03-09T00:28:55.527Z,1.46
2019-03-09T00:31:42.900Z,1.43
2019-03-09T00:34:13.417Z,1.48
2019-03-09T00:36:43.807Z,1.40
2019-03-09T00:39:14.777Z,1.41
2019-03-09T00:41:45.378Z,1.50
2019-03-09T00:44:15.936Z,1.54
2019-03-09T00:46:46.563Z,1.48
2019-03-09T00:49:17.235Z,1.48
2019-03-09T00:51:47.785Z,1.51
2019-03-09T00:54:18.519Z,1.53
2019-03-09T00:56:49.217Z,1.53
2019-03-09T00:59:20.597Z,1.50
2019-03-09T01:01:50.981Z,1.48
2019-03-09T01:04:22.637Z,1.45
2019-03-09T01:06:53.285Z,1.38
2019-03-09T01:09:23.686Z,1.39
2019-03-09T01:11:54.074Z,1.40
2019-03-09T01:14:24.555Z,1.39
2019-03-09T01:16:55.384Z,1.37
2019-03-09T01:19:25.899Z,1.36
2019-03-09T01:21:56.397Z,1.36
2019-03-09T01:24:26.956Z,1.48
2019-03-09T01:26:58.192Z,1.48
2019-03-09T01:29:28.544Z,1.49
2019-03-09T01:31:59.014Z,1.67
2019-03-09T01:34:29.763Z,1.51
2019-03-09T01:37:00.105Z,1.49
2019-03-09T01:39:30.752Z,1.56
2019-03-09T01:42:01.097Z,1.58
2019-03-09T01:44:31.564Z,1.60
2019-03-09T01:47:02.510Z,1.59
2019-03-09T01:49:32.930Z,1.53
2019-03-09T01:52:03.545Z,1.50
2019-03-09T01:54:34.066Z,1.46
2019-03-09T01:57:04.532Z,1.39
2019-03-09T01:59:34.892Z,1.39
2019-03-09T02:02:06.448Z,1.45
2019-03-09T02:04:37.061Z,1.49
2019-03-09T02:07:07.406Z,1.43
2019-03-09T02:09:37.766Z,1.35
2019-03-09T02:12:08.169Z,1.30
2019-03-09T02:14:38.606Z,1.34
2019-03-09T02:17:09.111Z,1.47
2019-03-09T02:19:39.704Z,1.41
2019-03-09T02:22:10.002Z,1.58
2019-03-09T02:24:40.353Z,1.53
2019-03-09T02:27:10.964Z,1.63
2019-03-09T02:29:41.902Z,1.72
2019-03-09T02:32:12.539Z,1.76
2019-03-09T02:34:43.107Z,1.72
2019-03-09T02:37:13.556Z,1.71
2019-03-09T02:39:45.647Z,1.74
2019-03-09T02:42:16.024Z,1.78
2019-03-09T02:44:46.547Z,1.73
2019-03-09T02:47:17.187Z,1.71
2019-03-09T02:49:47.588Z,1.73
2019-03-09T02:52:18.612Z,1.74
2019-03-09T02:54:49.048Z,1.71
2019-03-09T02:57:19.447Z,1.68
2019-03-09T02:59:49.786Z,1.73
2019-03-09T03:02:25.636Z,1.72
2019-03-09T03:04:56.081Z,1.72
2019-03-09T03:07:26.656Z,1.72
2019-03-09T03:09:57.011Z,1.79
2019-03-09T03:12:27.377Z,1.78
2019-03-09T03:14:57.965Z,1.78
2019-03-09T03:17:28.350Z,1.85
2019-03-09T03:19:58.850Z,1.88
2019-03-09T03:22:29.325Z,2.01
2019-03-09T03:25:00.029Z,1.99
